createdAt,value
2019-05-05T00:00:05.393Z,100465.44
2019-05-05T00:02:16.241Z,100468.00
2019-05-05T00:04:24.676Z,100467.13
2019-05-05T00:06:31.031Z,100466.66
2019-05-05T00:08:37.379Z,100468.87
2019-05-05T00:10:49.686Z,100470.13
2019-05-05T00:13:10.686Z,100471.07
2019-05-05T00:15:35.073Z,100469.77
2019-05-05T00:17:41.743Z,100473.23
2019-05-05T00:19:48.008Z,100474.06
2019-05-05T00:21:55.161Z,100475.80
2019-05-05T00:24:02.156Z,100476.23
2019-05-05T00:26:08.405Z,100486.20
2019-05-05T00:28:14.863Z,100486.20
2019-05-05T00:30:24.499Z,100484.86
2019-05-05T00:32:30.587Z,100484.86
2019-05-05T00:34:37.355Z,100486.56
2019-05-05T00:36:44.601Z,100489.98
2019-05-05T00:38:50.992Z,100488.25
2019-05-05T00:40:58.796Z,100495.62
2019-05-05T00:43:05.471Z,100493.02
2019-05-05T00:45:14.770Z,100491.72
2019-05-05T00:47:40.830Z,100493.45
2019-05-05T00:49:49.421Z,100501.72
2019-05-05T00:51:57.850Z,100499.59
2019-05-05T00:54:04.541Z,100502.63
2019-05-05T00:56:10.870Z,100505.23
2019-05-05T00:58:17.350Z,100502.59
2019-05-05T01:00:44.436Z,100507.39
2019-05-05T01:02:54.015Z,100510.39
2019-05-05T01:05:04.502Z,100526.38
2019-05-05T01:07:11.140Z,100526.38
2019-05-05T01:09:19.362Z,100534.58
2019-05-05T01:11:26.465Z,100535.02
2019-05-05T01:13:35.009Z,100533.68
2019-05-05T01:15:40.925Z,100536.67
2019-05-05T01:17:48.602Z,100531.44
2019-05-05T01:20:03.121Z,100533.17
2019-05-05T01:22:04.842Z,100530.57
2019-05-05T01:24:10.973Z,100534.00
2019-05-05T01:28:24.983Z,100535.30
2019-05-05T01:30:32.614Z,100543.50
2019-05-05T01:32:40.735Z,100540.91
2019-05-05T01:34:47.586Z,100535.70
2019-05-05T01:36:55.509Z,100543.50
2019-05-05T01:39:04.565Z,100542.74
2019-05-05T01:41:14.826Z,100546.22
2019-05-05T01:43:22.167Z,100546.28
2019-05-05T01:45:29.737Z,100549.81
2019-05-05T01:47:36.012Z,100548.65
2019-05-05T01:49:42.268Z,100550.45
2019-05-05T01:51:48.647Z,100547.07
2019-05-05T01:53:55.029Z,100552.79
2019-05-05T01:56:01.878Z,100542.91
2019-05-05T01:58:08.641Z,100551.19
2019-05-05T02:00:15.579Z,100554.30
2019-05-05T02:02:22.465Z,100553.92
2019-05-05T02:04:28.891Z,100556.11
2019-05-05T02:06:35.230Z,100554.42
2019-05-05T02:08:41.587Z,100562.66
2019-05-05T02:10:49.375Z,100562.25
2019-05-05T02:12:56.106Z,100559.65
2019-05-05T02:15:04.233Z,100557.92
2019-05-05T02:17:10.749Z,100561.39
2019-05-05T02:19:17.710Z,100554.48
2019-05-05T02:21:24.856Z,100551.02
2019-05-05T02:23:32.667Z,100548.89
2019-05-05T02:25:39.435Z,100548.02
2019-05-05T02:27:45.948Z,100548.45
2019-05-05T02:29:59.138Z,100546.31
2019-05-05T02:32:20.155Z,100551.06
2019-05-05T02:34:28.389Z,100548.06
2019-05-05T02:36:35.630Z,100550.23
2019-05-05T02:38:42.302Z,100549.77
2019-05-05T02:40:50.481Z,100555.85
2019-05-05T02:42:57.619Z,100555.84
2019-05-05T02:45:07.601Z,100561.05
2019-05-05T02:47:25.476Z,100569.69
2019-05-05T02:49:35.209Z,100569.27
2019-05-05T02:51:44.740Z,100577.08
2019-05-05T02:53:54.848Z,100574.07
2019-05-05T02:56:06.161Z,100589.23
2019-05-05T02:58:14.015Z,100594.00
2019-05-05T03:00:24.065Z,100596.20
2019-05-05T03:02:35.311Z,100590.56
2019-05-05T03:04:44.382Z,100591.88
2019-05-05T03:06:55.028Z,100596.23
2019-05-05T03:09:04.490Z,100597.95
2019-05-05T03:11:14.579Z,100602.74
2019-05-05T03:13:25.175Z,100605.78
2019-05-05T03:16:03.800Z,100614.02
2019-05-05T03:18:13.342Z,100618.76
2019-05-05T03:20:19.542Z,100620.91
2019-05-05T03:22:27.448Z,100626.55
2019-05-05T03:24:35.967Z,100635.62
2019-05-05T03:26:44.244Z,100634.76
2019-05-05T03:28:58.877Z,100635.17
2019-05-05T03:31:05.820Z,100636.91
2019-05-05T03:33:15.951Z,100641.21
2019-05-05T03:35:24.110Z,100638.20
2019-05-05T03:37:31.087Z,100645.10
2019-05-05T03:39:39.058Z,100645.56
2019-05-05T03:41:54.295Z,100648.58
2019-05-05T03:44:06.738Z,100651.61
2019-05-05T03:46:13.734Z,100657.64
2019-05-05T03:48:21.285Z,100661.09
2019-05-05T03:50:29.306Z,100657.63
2019-05-05T03:52:36.521Z,100663.20
2019-05-05T03:54:45.208Z,100658.39
2019-05-05T03:56:54.343Z,100660.51
2019-05-05T03:59:01.404Z,100671.80
2019-05-05T04:01:35.850Z,100662.47
2019-05-05T04:03:43.759Z,100662.93
2019-05-05T04:06:01.022Z,100665.90
2019-05-05T04:08:07.495Z,100668.67
2019-05-05T04:10:14.180Z,100665.02
2019-05-05T04:12:21.251Z,100673.02
2019-05-05T04:14:27.644Z,100664.86
2019-05-05T04:16:35.890Z,100676.09
2019-05-05T04:18:56.074Z,100672.06
2019-05-05T04:21:03.996Z,100689.34
2019-05-05T04:23:10.456Z,100684.00
2019-05-05T04:25:16.814Z,100686.20
2019-05-05T04:27:23.852Z,100692.95
2019-05-05T04:29:30.273Z,100702.58
2019-05-05T04:31:36.521Z,100699.35
2019-05-05T04:33:44.478Z,100704.13
2019-05-05T04:35:50.869Z,100700.41
2019-05-05T04:37:57.247Z,100695.23
2019-05-05T04:40:04.132Z,100700.80
2019-05-05T04:42:10.677Z,100701.27
2019-05-05T04:44:18.054Z,100713.70
2019-05-05T04:46:24.664Z,100714.58
2019-05-05T04:48:35.705Z,100720.42
2019-05-05T04:50:49.659Z,100728.80
2019-05-05T04:52:57.544Z,100735.87
2019-05-05T04:55:04.952Z,100746.54
2019-05-05T04:57:11.216Z,100746.63
2019-05-05T04:59:17.757Z,100749.39
2019-05-05T05:01:24.259Z,100747.61
2019-05-05T05:03:47.211Z,100749.03
2019-05-05T05:05:58.148Z,100758.03
2019-05-05T05:08:04.422Z,100762.34
2019-05-05T05:10:11.394Z,100767.52
2019-05-05T05:12:19.071Z,100771.66
2019-05-05T05:14:25.361Z,100773.08
2019-05-05T05:16:32.201Z,100774.84
2019-05-05T05:18:38.786Z,100783.17
2019-05-05T05:20:45.860Z,100780.22
2019-05-05T05:22:54.383Z,100778.77
2019-05-05T05:25:01.296Z,100779.35
2019-05-05T05:27:08.320Z,100778.33
2019-05-05T05:29:15.224Z,100775.91
2019-05-05T05:31:21.966Z,100780.28
2019-05-05T05:33:28.773Z,100781.80
2019-05-05T05:35:35.534Z,100782.39
2019-05-05T05:37:42.041Z,100784.03
2019-05-05T05:39:50.392Z,100786.03
2019-05-05T05:41:57.082Z,100796.85
2019-05-05T05:44:04.977Z,100793.34
2019-05-05T05:46:15.551Z,100803.26
2019-05-05T05:48:31.626Z,100796.28
2019-05-05T05:50:45.763Z,100791.03
2019-05-05T05:52:54.079Z,100781.02
2019-05-05T05:55:00.426Z,100777.61
2019-05-05T05:57:06.797Z,100779.70
2019-05-05T05:59:14.130Z,100785.67
2019-05-05T06:01:20.465Z,100790.28
2019-05-05T06:03:27.025Z,100789.55
2019-05-05T06:05:34.469Z,100789.77
2019-05-05T06:07:44.090Z,100790.52
2019-05-05T06:09:49.809Z,100793.17
2019-05-05T06:11:57.501Z,100800.59
2019-05-05T06:14:04.667Z,100795.42
2019-05-05T06:16:14.461Z,100795.73
2019-05-05T06:18:20.458Z,100811.07
2019-05-05T06:20:28.073Z,100802.20
2019-05-05T06:22:34.565Z,100815.88
2019-05-05T06:24:40.990Z,100814.13
2019-05-05T06:26:47.224Z,100817.91
2019-05-05T06:28:54.117Z,100823.34
2019-05-05T06:31:00.585Z,100816.95
2019-05-05T06:33:06.873Z,100818.75
2019-05-05T06:35:15.668Z,100819.87
2019-05-05T06:37:23.776Z,100825.15
2019-05-05T06:39:30.385Z,100829.61
2019-05-05T06:41:38.232Z,100836.50
2019-05-05T06:44:04.592Z,100838.36
2019-05-05T06:46:24.558Z,100840.97
2019-05-05T06:48:30.830Z,100844.84
2019-05-05T06:50:38.914Z,100845.62
2019-05-05T06:52:47.205Z,100850.67
2019-05-05T06:54:54.355Z,100837.80
2019-05-05T06:57:00.779Z,100836.07
2019-05-05T06:59:07.218Z,100833.78
2019-05-05T07:01:14.333Z,100840.30
2019-05-05T07:03:20.866Z,100832.15
2019-05-05T07:05:27.337Z,100830.28
2019-05-05T07:07:34.401Z,100837.67
2019-05-05T07:09:40.675Z,100834.91
2019-05-05T07:11:47.149Z,100833.51
2019-05-05T07:13:53.857Z,100838.44
2019-05-05T07:16:02.044Z,100834.00
2019-05-05T07:18:08.596Z,100832.20
2019-05-05T07:20:15.636Z,100842.41
2019-05-05T07:22:23.951Z,100841.13
2019-05-05T07:24:30.348Z,100843.59
2019-05-05T07:26:37.581Z,100849.84
2019-05-05T07:28:45.248Z,100849.09
2019-05-05T07:30:52.262Z,100852.27
2019-05-05T07:32:58.658Z,100856.86
2019-05-05T07:35:11.664Z,100856.11
2019-05-05T07:37:18.758Z,100853.05
2019-05-05T07:39:25.328Z,100857.05
2019-05-05T07:41:33.934Z,100862.05
2019-05-05T07:43:39.698Z,100861.22
2019-05-05T07:45:46.151Z,100869.43
2019-05-05T07:47:54.272Z,100870.68
2019-05-05T07:50:00.301Z,100878.31
2019-05-05T07:52:06.645Z,100887.94
2019-05-05T07:54:14.474Z,100878.77
2019-05-05T07:56:21.039Z,100886.74
2019-05-05T07:58:29.118Z,100884.54
2019-05-05T08:00:35.408Z,100881.29
2019-05-05T08:02:43.904Z,100892.18
2019-05-05T08:04:50.248Z,100885.21
2019-05-05T08:06:56.519Z,100894.75
2019-05-05T08:09:04.063Z,100892.77
2019-05-05T08:11:11.800Z,100894.61
2019-05-05T08:13:18.581Z,100897.72
2019-05-05T08:15:26.611Z,100907.70
2019-05-05T08:17:40.265Z,100903.82
2019-05-05T08:19:57.030Z,100904.69
2019-05-05T08:22:04.737Z,100903.84
2019-05-05T08:24:28.815Z,100908.45
2019-05-05T08:26:47.054Z,100905.92
2019-05-05T08:28:57.402Z,100908.34
2019-05-05T08:31:11.054Z,100903.82
2019-05-05T08:33:17.420Z,100899.69
2019-05-05T08:35:25.208Z,100906.59
2019-05-05T08:37:35.069Z,100907.61
2019-05-05T08:39:41.612Z,100909.66
2019-05-05T08:41:49.646Z,100917.10
2019-05-05T08:43:57.698Z,100930.95
2019-05-05T08:46:04.889Z,100921.66
2019-05-05T08:48:11.568Z,100913.80
2019-05-05T08:50:18.429Z,100918.08
2019-05-05T08:52:25.967Z,100917.52
2019-05-05T08:54:34.401Z,100918.16
2019-05-05T08:56:40.801Z,100924.81
2019-05-05T08:58:49.940Z,100922.56
2019-05-05T09:00:56.401Z,100925.80
2019-05-05T09:03:03.880Z,100914.81
2019-05-05T09:05:10.472Z,100914.00
2019-05-05T09:07:16.919Z,100941.17
2019-05-05T09:09:25.378Z,100938.27
2019-05-05T09:11:31.674Z,100925.55
2019-05-05T09:13:38.410Z,100929.88
2019-05-05T09:15:47.869Z,100921.67
2019-05-05T09:17:55.447Z,100930.02
2019-05-05T09:20:04.535Z,100931.63
2019-05-05T09:22:11.193Z,100933.27
2019-05-05T09:24:35.673Z,100930.32
2019-05-05T09:26:58.624Z,100932.23
2019-05-05T09:29:24.244Z,100924.84
2019-05-05T09:31:34.295Z,100936.17
2019-05-05T09:33:40.745Z,100941.58
2019-05-05T09:35:47.429Z,100933.27
2019-05-05T09:37:54.532Z,100935.73
2019-05-05T09:40:01.828Z,100937.58
2019-05-05T09:42:10.935Z,100940.23
2019-05-05T09:44:18.885Z,100921.27
2019-05-05T09:46:28.998Z,100929.86
2019-05-05T09:48:35.329Z,100931.49
2019-05-05T09:50:43.649Z,100936.77
2019-05-05T09:52:49.687Z,100941.61
2019-05-05T09:54:56.550Z,100938.24
2019-05-05T09:57:04.516Z,100948.38
2019-05-05T09:59:11.034Z,100939.96
2019-05-05T10:01:17.304Z,100939.70
2019-05-05T10:03:23.648Z,100940.48
2019-05-05T10:05:30.012Z,100940.05
2019-05-05T10:07:36.594Z,100943.63
2019-05-05T10:09:43.785Z,100947.03
2019-05-05T10:11:50.358Z,100945.94
2019-05-05T10:13:56.696Z,100945.43
2019-05-05T10:16:03.939Z,100946.53
2019-05-05T10:18:10.548Z,100948.27
2019-05-05T10:20:18.549Z,100945.69
2019-05-05T10:22:25.834Z,100945.48
2019-05-05T10:24:36.907Z,100953.59
2019-05-05T10:26:43.874Z,100958.63
2019-05-05T10:28:53.601Z,100967.03
2019-05-05T10:30:59.674Z,100960.16
2019-05-05T10:33:06.262Z,100964.14
2019-05-05T10:35:14.341Z,100961.88
2019-05-05T10:37:21.008Z,100964.69
2019-05-05T10:39:30.340Z,100960.62
2019-05-05T10:41:37.010Z,100967.87
2019-05-05T10:43:43.773Z,100973.59
2019-05-05T10:45:52.000Z,100959.31
2019-05-05T10:47:58.830Z,100956.52
2019-05-05T10:50:07.798Z,100955.66
2019-05-05T10:52:14.473Z,100961.30
2019-05-05T10:54:23.818Z,100966.63
2019-05-05T10:56:31.062Z,100958.38
2019-05-05T10:58:38.968Z,100953.45
2019-05-05T11:00:54.495Z,100950.52
2019-05-05T11:03:00.935Z,100962.14
2019-05-05T11:05:12.423Z,100969.45
2019-05-05T11:07:18.958Z,100962.80
2019-05-05T11:09:25.558Z,100946.95
2019-05-05T11:11:31.889Z,100945.00
2019-05-05T11:13:38.370Z,100946.72
2019-05-05T11:15:44.738Z,100949.55
2019-05-05T11:17:51.086Z,100943.53
2019-05-05T11:19:57.654Z,100956.09
2019-05-05T11:22:04.219Z,100943.20
2019-05-05T11:24:10.681Z,100946.75
2019-05-05T11:26:17.085Z,100946.70
2019-05-05T11:28:23.409Z,100945.12
2019-05-05T11:30:39.031Z,100937.90
2019-05-05T11:33:04.034Z,100943.98
2019-05-05T11:35:10.555Z,100938.84
2019-05-05T11:37:17.340Z,100937.61
2019-05-05T11:39:23.707Z,100948.94
2019-05-05T11:41:30.161Z,100952.51
2019-05-05T11:43:37.719Z,100949.02
2019-05-05T11:45:44.044Z,100946.36
2019-05-05T11:47:50.485Z,100947.97
2019-05-05T11:49:56.929Z,100949.08
2019-05-05T11:52:04.600Z,100947.55
2019-05-05T11:54:10.975Z,100947.72
2019-05-05T11:56:18.199Z,100948.99
2019-05-05T11:58:25.153Z,100951.72
2019-05-05T12:00:34.648Z,100948.75
2019-05-05T12:02:40.038Z,100952.83
2019-05-05T12:04:46.489Z,100957.09
2019-05-05T12:06:52.751Z,100953.34
2019-05-05T12:09:00.654Z,100945.23
2019-05-05T12:11:08.928Z,100944.60
2019-05-05T12:13:16.651Z,100941.91
2019-05-05T12:15:23.852Z,100942.45
2019-05-05T12:17:36.856Z,100949.57
2019-05-05T12:19:43.948Z,100948.07
2019-05-05T12:21:50.782Z,100954.45
2019-05-05T12:23:57.765Z,100956.96
2019-05-05T12:26:24.220Z,100957.81
2019-05-05T12:28:34.736Z,100948.19
2019-05-05T12:30:44.430Z,100956.86
2019-05-05T12:32:50.898Z,100948.89
2019-05-05T12:34:57.355Z,100956.05
2019-05-05T12:37:05.280Z,100955.58
2019-05-05T12:39:14.214Z,100952.70
2019-05-05T12:41:21.380Z,100953.36
2019-05-05T12:43:30.966Z,100950.52
2019-05-05T12:45:40.233Z,100952.95
2019-05-05T12:48:04.719Z,100951.13
2019-05-05T12:50:11.552Z,100947.20
2019-05-05T12:52:17.949Z,100951.19
2019-05-05T12:54:26.156Z,100956.59
2019-05-05T12:56:35.813Z,100949.30
2019-05-05T12:58:43.972Z,100945.17
2019-05-05T13:00:55.273Z,100950.31
2019-05-05T13:03:04.367Z,100949.49
2019-05-05T13:05:10.783Z,100952.14
2019-05-05T13:07:18.163Z,100957.35
2019-05-05T13:09:26.576Z,100954.34
2019-05-05T13:11:34.713Z,100951.94
2019-05-05T13:13:41.144Z,100952.73
2019-05-05T13:15:48.455Z,100948.68
2019-05-05T13:17:56.529Z,100953.61
2019-05-05T13:20:08.301Z,100950.06
2019-05-05T13:22:33.792Z,100953.25
2019-05-05T13:24:50.740Z,100953.47
2019-05-05T13:26:59.075Z,100952.37
2019-05-05T13:29:05.840Z,100944.96
2019-05-05T13:31:15.564Z,100945.95
2019-05-05T13:33:22.145Z,100943.13
2019-05-05T13:35:28.494Z,100941.13
2019-05-05T13:37:34.863Z,100937.65
2019-05-05T13:39:44.439Z,100938.09
2019-05-05T13:41:51.213Z,100930.69
2019-05-05T13:43:59.363Z,100927.41
2019-05-05T13:46:13.969Z,100935.45
2019-05-05T13:48:20.607Z,100944.91
2019-05-05T13:50:40.887Z,100940.34
2019-05-05T13:52:47.343Z,100933.21
2019-05-05T13:54:54.370Z,100929.38
2019-05-05T13:57:00.868Z,100934.69
2019-05-05T13:59:07.364Z,100942.19
2019-05-05T14:01:16.123Z,100939.28
2019-05-05T14:03:26.988Z,100933.05
2019-05-05T14:05:36.580Z,100940.67
2019-05-05T14:07:43.725Z,100939.64
2019-05-05T14:09:51.870Z,100937.48
2019-05-05T14:11:59.772Z,100944.75
2019-05-05T14:14:06.445Z,100951.11
2019-05-05T14:16:14.334Z,100951.34
2019-05-05T14:18:21.180Z,100945.25
2019-05-05T14:20:29.324Z,100956.42
2019-05-05T14:22:37.833Z,100954.58
2019-05-05T14:24:46.157Z,100953.79
2019-05-05T14:26:54.254Z,100946.83
2019-05-05T14:29:01.073Z,100944.08
2019-05-05T14:31:10.672Z,100941.53
2019-05-05T14:33:23.677Z,100935.48
2019-05-05T14:35:35.691Z,100930.73
2019-05-05T14:37:45.274Z,100933.70
2019-05-05T14:39:54.393Z,100934.01
2019-05-05T14:42:00.872Z,100930.34
2019-05-05T14:44:13.459Z,100930.04
2019-05-05T14:46:23.482Z,100925.53
2019-05-05T14:48:33.557Z,100927.40
2019-05-05T14:50:40.171Z,100929.36
2019-05-05T14:52:47.231Z,100925.98
2019-05-05T14:54:56.018Z,100929.02
2019-05-05T14:57:04.553Z,100933.67
2019-05-05T14:59:14.065Z,100934.41
2019-05-05T15:01:20.744Z,100939.85
2019-05-05T15:03:28.251Z,100937.12
2019-05-05T15:05:36.872Z,100935.72
2019-05-05T15:07:45.597Z,100936.41
2019-05-05T15:09:55.674Z,100934.67
2019-05-05T15:12:03.783Z,100935.72
2019-05-05T15:14:13.817Z,100930.80
2019-05-05T15:16:21.151Z,100937.16
2019-05-05T15:18:29.472Z,100931.86
2019-05-05T15:20:36.684Z,100940.48
2019-05-05T15:22:46.852Z,100936.02
2019-05-05T15:24:54.819Z,100937.66
2019-05-05T15:27:01.651Z,100935.02
2019-05-05T15:29:08.430Z,100931.41
2019-05-05T15:31:17.767Z,100930.55
2019-05-05T15:33:24.441Z,100933.25
2019-05-05T15:35:33.853Z,100934.98
2019-05-05T15:37:40.411Z,100930.48
2019-05-05T15:39:47.172Z,100930.56
2019-05-05T15:41:56.400Z,100931.95
2019-05-05T15:44:03.816Z,100927.88
2019-05-05T15:46:12.251Z,100927.46
2019-05-05T15:48:20.439Z,100932.06
2019-05-05T15:50:28.312Z,100929.84
2019-05-05T15:52:35.296Z,100934.73
2019-05-05T15:54:42.198Z,100925.52
2019-05-05T15:57:01.844Z,100933.03
2019-05-05T15:58:58.011Z,100932.59
2019-05-05T16:01:05.211Z,100931.86
2019-05-05T16:03:13.755Z,100928.86
2019-05-05T16:05:21.932Z,100920.56
2019-05-05T16:07:28.711Z,100924.72
2019-05-05T16:09:35.812Z,100919.74
2019-05-05T16:11:44.078Z,100913.52
2019-05-05T16:13:51.479Z,100920.12
2019-05-05T16:16:05.245Z,100915.05
2019-05-05T16:18:28.451Z,100914.23
2019-05-05T16:20:40.551Z,100912.33
2019-05-05T16:22:54.174Z,100916.52
2019-05-05T16:25:15.331Z,100923.24
2019-05-05T16:27:24.764Z,100918.14
2019-05-05T16:29:31.271Z,100921.77
2019-05-05T16:31:38.173Z,100918.25
2019-05-05T16:33:45.079Z,100925.48
2019-05-05T16:35:52.137Z,100927.97
2019-05-05T16:37:59.199Z,100933.18
2019-05-05T16:40:09.931Z,100925.22
2019-05-05T16:42:17.066Z,100921.57
2019-05-05T16:44:23.978Z,100930.48
2019-05-05T16:46:31.252Z,100929.63
2019-05-05T16:48:38.194Z,100931.92
2019-05-05T16:50:45.382Z,100936.62
2019-05-05T16:53:05.579Z,100939.02
2019-05-05T16:55:20.080Z,100939.28
2019-05-05T16:57:34.029Z,100937.69
2019-05-05T16:59:36.674Z,100941.92
2019-05-05T17:01:44.506Z,100940.99
2019-05-05T17:03:51.500Z,100943.98
2019-05-05T17:05:58.712Z,100939.87
2019-05-05T17:08:05.852Z,100941.03
2019-05-05T17:10:14.418Z,100943.22
2019-05-05T17:12:21.359Z,100940.22
2019-05-05T17:14:30.213Z,100940.79
2019-05-05T17:16:41.431Z,100943.51
2019-05-05T17:18:48.519Z,100944.91
2019-05-05T17:21:09.531Z,100947.02
2019-05-05T17:23:17.003Z,100948.52
2019-05-05T17:25:24.634Z,100944.89
2019-05-05T17:27:44.846Z,100950.03
2019-05-05T17:29:40.551Z,100953.77
2019-05-05T17:31:47.782Z,100953.43
2019-05-05T17:33:54.818Z,100947.55
2019-05-05T17:36:02.102Z,100956.03
2019-05-05T17:38:10.707Z,100951.77
2019-05-05T17:40:21.551Z,100951.53
2019-05-05T17:42:31.183Z,100961.29
2019-05-05T17:44:44.372Z,100961.45
2019-05-05T17:46:53.815Z,100961.97
2019-05-05T17:49:09.738Z,100964.81
2019-05-05T17:51:34.118Z,100964.39
2019-05-05T17:53:50.093Z,100967.98
2019-05-05T17:55:58.731Z,100970.91
2019-05-05T17:58:07.918Z,100973.45
2019-05-05T18:00:15.194Z,100975.59
2019-05-05T18:02:23.563Z,100976.00
2019-05-05T18:04:30.945Z,100974.16
2019-05-05T18:06:39.664Z,100979.80
2019-05-05T18:08:48.377Z,100973.98
2019-05-05T18:10:55.410Z,100982.13
2019-05-05T18:13:03.642Z,100981.52
2019-05-05T18:15:29.237Z,100983.09
2019-05-05T18:17:38.619Z,100979.79
2019-05-05T18:19:46.837Z,100988.77
2019-05-05T18:21:56.458Z,100992.50
2019-05-05T18:24:03.733Z,100990.59
2019-05-05T18:26:10.438Z,100998.15
2019-05-05T18:28:20.175Z,100996.20
2019-05-05T18:30:26.359Z,100993.27
2019-05-05T18:32:36.370Z,100994.73
2019-05-05T18:34:43.570Z,100995.59
2019-05-05T18:36:50.378Z,100995.94
2019-05-05T18:38:58.810Z,100992.89
2019-05-05T18:41:07.298Z,100993.86
2019-05-05T18:43:15.830Z,100995.32
2019-05-05T18:45:23.754Z,100999.41
2019-05-05T18:47:31.510Z,101006.48
2019-05-05T18:49:38.998Z,101013.59
2019-05-05T18:51:48.051Z,101007.23
2019-05-05T18:53:55.180Z,101003.14
2019-05-05T18:56:03.756Z,101004.25
2019-05-05T18:58:10.878Z,101008.38
2019-05-05T19:00:19.953Z,101005.41
2019-05-05T19:02:44.956Z,101016.58
2019-05-05T19:05:10.378Z,101011.85
2019-05-05T19:07:18.858Z,101016.80
2019-05-05T19:09:26.369Z,101019.16
2019-05-05T19:11:34.139Z,101020.55
2019-05-05T19:13:41.165Z,101023.30
2019-05-05T19:15:48.325Z,101025.60
2019-05-05T19:17:55.530Z,101025.22
2019-05-05T19:20:04.342Z,101021.87
2019-05-05T19:22:16.091Z,101029.33
2019-05-05T19:24:23.480Z,101029.91
2019-05-05T19:26:33.752Z,101029.98
2019-05-05T19:28:46.817Z,101030.09
2019-05-05T19:30:50.157Z,101028.96
2019-05-05T19:32:57.668Z,101033.10
2019-05-05T19:35:07.532Z,101028.03
2019-05-05T19:37:14.927Z,101032.99
2019-05-05T19:39:24.154Z,101025.73
2019-05-05T19:41:34.781Z,101028.79
2019-05-05T19:43:55.239Z,101028.89
2019-05-05T19:46:04.987Z,101026.38
2019-05-05T19:48:14.786Z,101026.03
2019-05-05T19:50:24.444Z,101022.22
2019-05-05T19:52:31.302Z,101023.23
2019-05-05T19:54:39.197Z,101030.24
2019-05-05T19:56:46.493Z,101030.28
2019-05-05T19:58:59.187Z,101027.29
2019-05-05T20:01:04.903Z,101032.16
2019-05-05T20:03:14.342Z,101033.95
2019-05-05T20:05:21.508Z,101031.86
2019-05-05T20:07:29.714Z,101034.16
2019-05-05T20:09:36.752Z,101033.84
2019-05-05T20:11:44.160Z,101035.70
2019-05-05T20:14:04.650Z,101031.43
2019-05-05T20:16:20.188Z,101031.51
2019-05-05T20:18:27.186Z,101028.14
2019-05-05T20:20:33.800Z,101028.61
2019-05-05T20:22:40.608Z,101032.55
2019-05-05T20:24:47.344Z,101029.58
2019-05-05T20:26:55.334Z,101033.13
2019-05-05T20:29:13.177Z,101037.11
2019-05-05T20:31:14.129Z,101037.20
2019-05-05T20:33:25.109Z,101033.34
2019-05-05T20:35:36.485Z,101034.73
2019-05-05T20:37:50.968Z,101035.61
2019-05-05T20:39:59.563Z,101035.66
2019-05-05T20:42:07.434Z,101038.73
2019-05-05T20:44:14.005Z,101035.25
2019-05-05T20:46:23.672Z,101034.39
2019-05-05T20:48:30.250Z,101031.75
2019-05-05T20:50:38.744Z,101031.75
2019-05-05T20:52:45.529Z,101036.13
2019-05-05T20:54:53.719Z,101037.04
2019-05-05T20:57:00.010Z,101037.52
2019-05-05T20:59:08.179Z,101043.22
2019-05-05T21:01:14.473Z,101043.67
2019-05-05T21:03:23.665Z,101044.13
2019-05-05T21:05:30.050Z,101048.52
2019-05-05T21:07:36.448Z,101041.64
2019-05-05T21:09:42.683Z,101049.06
2019-05-05T21:11:50.592Z,101043.45
2019-05-05T21:13:58.480Z,101042.62
2019-05-05T21:16:04.846Z,101041.36
2019-05-05T21:18:11.301Z,101040.52
2019-05-05T21:20:18.404Z,101040.51
2019-05-05T21:22:44.263Z,101041.73
2019-05-05T21:24:51.278Z,101037.37
2019-05-05T21:27:04.216Z,101043.02
2019-05-05T21:29:10.849Z,101042.16
2019-05-05T21:31:17.543Z,101044.66
2019-05-05T21:33:24.091Z,101045.52
2019-05-05T21:35:30.975Z,101038.59
2019-05-05T21:37:37.736Z,101042.91
2019-05-05T21:39:45.456Z,101039.91
2019-05-05T21:41:52.008Z,101043.37
2019-05-05T21:43:58.479Z,101046.45
2019-05-05T21:46:04.838Z,101038.25
2019-05-05T21:48:13.503Z,101045.63
2019-05-05T21:50:28.022Z,101048.70
2019-05-05T21:52:48.309Z,101045.26
2019-05-05T21:54:56.197Z,101049.17
2019-05-05T21:57:23.451Z,101045.67
2019-05-05T21:59:30.021Z,101042.24
2019-05-05T22:01:39.844Z,101045.31
2019-05-05T22:03:44.906Z,101053.13
2019-05-05T22:05:51.659Z,101053.58
2019-05-05T22:07:59.585Z,101057.52
2019-05-05T22:10:07.491Z,101054.06
2019-05-05T22:12:14.756Z,101059.26
2019-05-05T22:14:21.231Z,101057.94
2019-05-05T22:16:27.683Z,101053.19
2019-05-05T22:18:34.575Z,101057.53
2019-05-05T22:20:48.383Z,101056.66
2019-05-05T22:22:54.654Z,101058.39
2019-05-05T22:25:03.670Z,101056.23
2019-05-05T22:27:10.006Z,101057.55
2019-05-05T22:29:18.042Z,101066.66
2019-05-05T22:31:25.220Z,101066.25
2019-05-05T22:33:33.837Z,101063.27
2019-05-05T22:35:39.477Z,101071.52
2019-05-05T22:37:46.258Z,101062.42
2019-05-05T22:39:54.165Z,101063.28
2019-05-05T22:42:01.130Z,101065.92
2019-05-05T22:44:07.785Z,101068.08
2019-05-05T22:46:14.226Z,101062.91
2019-05-05T22:48:20.623Z,101061.60
2019-05-05T22:50:27.083Z,101066.38
2019-05-05T22:52:34.348Z,101060.31
2019-05-05T22:54:40.958Z,101061.18
2019-05-05T22:56:47.703Z,101071.59
2019-05-05T22:58:54.719Z,101066.39
2019-05-05T23:01:03.903Z,101070.72
2019-05-05T23:03:16.208Z,101072.01
2019-05-05T23:05:34.681Z,101068.54
2019-05-05T23:07:41.025Z,101068.97
2019-05-05T23:09:47.410Z,101067.22
2019-05-05T23:11:54.572Z,101071.98
2019-05-05T23:14:19.573Z,101067.66
2019-05-05T23:16:27.778Z,101058.56
2019-05-05T23:18:34.757Z,101062.88
2019-05-05T23:20:57.086Z,101068.05
2019-05-05T23:23:14.573Z,101070.63
2019-05-05T23:25:25.595Z,101067.18
2019-05-05T23:27:50.705Z,101062.41
2019-05-05T23:29:56.957Z,101060.25
2019-05-05T23:32:03.205Z,101057.63
2019-05-05T23:34:09.477Z,101061.52
2019-05-05T23:36:15.935Z,101061.95
2019-05-05T23:38:23.939Z,101060.67
2019-05-05T23:40:30.802Z,101060.25
2019-05-05T23:42:37.073Z,101060.25
2019-05-05T23:44:43.440Z,101062.38
2019-05-05T23:46:50.007Z,101066.69
2019-05-05T23:48:56.260Z,101067.11
2019-05-05T23:51:04.516Z,101070.52
2019-05-05T23:53:13.744Z,101074.88
2019-05-05T23:55:19.671Z,101073.14
2019-05-05T23:57:26.319Z,101075.73
2019-05-05T23:59:32.685Z,101073.98
